sensor_id;sensor_type;location;lat;lon;timestamp;P1;durP1;ratioP1;P2;durP2;ratioP2
13291;SDS011;6714;53.056;8.690;2023-02-08T00:00:36;27.50;;;18.87;;
13291;SDS011;6714;53.056;8.690;2023-02-08T00:03:18;25.80;;;17.13;;
13291;SDS011;6714;53.056;8.690;2023-02-08T00:06:02;26.60;;;17.77;;
13291;SDS011;6714;53.056;8.690;2023-02-08T00:08:45;29.63;;;18.60;;
13291;SDS011;6714;53.056;8.690;2023-02-08T00:11:27;28.70;;;18.13;;
13291;SDS011;6714;53.056;8.690;2023-02-08T00:14:09;27.93;;;17.57;;
13291;SDS011;6714;53.056;8.690;2023-02-08T00:16:51;25.43;;;16.23;;
13291;SDS011;6714;53.056;8.690;2023-02-08T00:19:34;23.43;;;16.20;;
13291;SDS011;6714;53.056;8.690;2023-02-08T00:22:17;26.10;;;16.80;;
13291;SDS011;6714;53.056;8.690;2023-02-08T00:24:59;25.43;;;16.93;;
13291;SDS011;6714;53.056;8.690;2023-02-08T00:27:42;27.83;;;18.80;;
13291;SDS011;6714;53.056;8.690;2023-02-08T00:30:24;26.87;;;18.43;;
13291;SDS011;6714;53.056;8.690;2023-02-08T00:33:07;27.50;;;18.80;;
13291;SDS011;6714;53.056;8.690;2023-02-08T00:35:49;27.00;;;17.57;;
13291;SDS011;6714;53.056;8.690;2023-02-08T00:38:33;29.67;;;18.03;;
13291;SDS011;6714;53.056;8.690;2023-02-08T00:41:16;26.80;;;17.53;;
13291;SDS011;6714;53.056;8.690;2023-02-08T00:43:59;27.07;;;18.67;;
13291;SDS011;6714;53.056;8.690;2023-02-08T00:46:41;27.00;;;18.40;;
13291;SDS011;6714;53.056;8.690;2023-02-08T00:49:23;29.03;;;20.07;;
13291;SDS011;6714;53.056;8.690;2023-02-08T00:52:05;26.57;;;17.60;;
13291;SDS011;6714;53.056;8.690;2023-02-08T00:54:49;25.60;;;17.30;;
13291;SDS011;6714;53.056;8.690;2023-02-08T00:57:32;25.93;;;17.10;;
13291;SDS011;6714;53.056;8.690;2023-02-08T01:00:14;25.17;;;17.27;;
13291;SDS011;6714;53.056;8.690;2023-02-08T01:02:57;26.30;;;18.30;;
13291;SDS011;6714;53.056;8.690;2023-02-08T01:05:39;26.47;;;17.83;;
13291;SDS011;6714;53.056;8.690;2023-02-08T01:08:22;24.70;;;17.03;;
13291;SDS011;6714;53.056;8.690;2023-02-08T01:11:06;24.57;;;16.57;;
13291;SDS011;6714;53.056;8.690;2023-02-08T01:13:49;26.43;;;17.00;;
13291;SDS011;6714;53.056;8.690;2023-02-08T01:16:32;27.67;;;17.57;;
13291;SDS011;6714;53.056;8.690;2023-02-08T01:19:15;27.03;;;17.23;;
13291;SDS011;6714;53.056;8.690;2023-02-08T01:21:57;27.07;;;17.80;;
13291;SDS011;6714;53.056;8.690;2023-02-08T01:24:39;27.43;;;17.73;;
13291;SDS011;6714;53.056;8.690;2023-02-08T01:27:23;24.60;;;16.60;;
13291;SDS011;6714;53.056;8.690;2023-02-08T01:30:06;26.87;;;17.77;;
13291;SDS011;6714;53.056;8.690;2023-02-08T01:32:48;26.07;;;17.70;;
13291;SDS011;6714;53.056;8.690;2023-02-08T01:35:30;23.23;;;16.83;;
13291;SDS011;6714;53.056;8.690;2023-02-08T01:38:12;27.90;;;18.10;;
13291;SDS011;6714;53.056;8.690;2023-02-08T01:40:55;26.20;;;18.07;;
13291;SDS011;6714;53.056;8.690;2023-02-08T01:46:36;31.03;;;18.47;;
13291;SDS011;6714;53.056;8.690;2023-02-08T01:49:19;25.80;;;16.97;;
13291;SDS011;6714;53.056;8.690;2023-02-08T01:52:04;26.03;;;17.37;;
13291;SDS011;6714;53.056;8.690;2023-02-08T01:54:48;29.47;;;17.93;;
13291;SDS011;6714;53.056;8.690;2023-02-08T01:57:31;25.07;;;16.97;;
13291;SDS011;6714;53.056;8.690;2023-02-08T02:00:15;25.67;;;17.30;;
13291;SDS011;6714;53.056;8.690;2023-02-08T02:03:01;28.87;;;17.43;;
13291;SDS011;6714;53.056;8.690;2023-02-08T02:05:45;27.37;;;16.83;;
13291;SDS011;6714;53.056;8.690;2023-02-08T02:08:28;25.43;;;16.80;;
13291;SDS011;6714;53.056;8.690;2023-02-08T02:11:11;27.20;;;17.73;;
13291;SDS011;6714;53.056;8.690;2023-02-08T02:13:53;26.73;;;17.23;;
13291;SDS011;6714;53.056;8.690;2023-02-08T02:16:36;26.57;;;17.87;;
13291;SDS011;6714;53.056;8.690;2023-02-08T02:19:21;26.23;;;17.87;;
13291;SDS011;6714;53.056;8.690;2023-02-08T02:22:15;24.67;;;17.10;;
13291;SDS011;6714;53.056;8.690;2023-02-08T02:25:05;29.57;;;19.00;;
13291;SDS011;6714;53.056;8.690;2023-02-08T02:27:54;33.47;;;20.67;;
13291;SDS011;6714;53.056;8.690;2023-02-08T02:30:48;28.07;;;17.73;;
13291;SDS011;6714;53.056;8.690;2023-02-08T02:33:40;32.13;;;18.73;;
13291;SDS011;6714;53.056;8.690;2023-02-08T02:36:27;29.97;;;19.07;;
13291;SDS011;6714;53.056;8.690;2023-02-08T02:39:14;35.77;;;21.03;;
13291;SDS011;6714;53.056;8.690;2023-02-08T02:42:00;25.93;;;16.63;;
13291;SDS011;6714;53.056;8.690;2023-02-08T02:45:04;26.07;;;16.87;;
13291;SDS011;6714;53.056;8.690;2023-02-08T02:47:48;27.60;;;17.03;;
13291;SDS011;6714;53.056;8.690;2023-02-08T02:50:36;17.20;;;11.87;;
13291;SDS011;6714;53.056;8.690;2023-02-08T02:53:23;26.00;;;17.30;;
13291;SDS011;6714;53.056;8.690;2023-02-08T02:56:08;24.33;;;17.23;;
13291;SDS011;6714;53.056;8.690;2023-02-08T02:58:51;28.10;;;17.40;;
13291;SDS011;6714;53.056;8.690;2023-02-08T03:01:33;24.73;;;16.47;;
13291;SDS011;6714;53.056;8.690;2023-02-08T03:04:16;28.97;;;16.53;;
13291;SDS011;6714;53.056;8.690;2023-02-08T03:07:01;28.83;;;17.10;;
13291;SDS011;6714;53.056;8.690;2023-02-08T03:09:56;29.17;;;16.90;;
13291;SDS011;6714;53.056;8.690;2023-02-08T03:12:43;26.57;;;17.63;;
13291;SDS011;6714;53.056;8.690;2023-02-08T03:15:33;25.90;;;16.90;;
13291;SDS011;6714;53.056;8.690;2023-02-08T03:18:23;23.93;;;15.53;;
13291;SDS011;6714;53.056;8.690;2023-02-08T03:21:11;24.53;;;15.77;;
13291;SDS011;6714;53.056;8.690;2023-02-08T03:23:58;25.53;;;16.87;;
13291;SDS011;6714;53.056;8.690;2023-02-08T03:26:44;29.47;;;17.30;;
13291;SDS011;6714;53.056;8.690;2023-02-08T03:29:35;26.80;;;17.13;;
13291;SDS011;6714;53.056;8.690;2023-02-08T03:32:19;26.13;;;16.57;;
13291;SDS011;6714;53.056;8.690;2023-02-08T03:35:03;27.40;;;17.50;;
13291;SDS011;6714;53.056;8.690;2023-02-08T03:37:48;30.47;;;19.53;;
13291;SDS011;6714;53.056;8.690;2023-02-08T03:40:34;25.67;;;16.40;;
13291;SDS011;6714;53.056;8.690;2023-02-08T03:43:19;25.50;;;16.03;;
13291;SDS011;6714;53.056;8.690;2023-02-08T03:46:02;26.37;;;16.43;;
13291;SDS011;6714;53.056;8.690;2023-02-08T03:48:48;31.33;;;19.53;;
13291;SDS011;6714;53.056;8.690;2023-02-08T03:51:33;25.13;;;16.03;;
13291;SDS011;6714;53.056;8.690;2023-02-08T03:54:16;25.63;;;16.57;;
13291;SDS011;6714;53.056;8.690;2023-02-08T03:57:03;30.27;;;18.03;;
13291;SDS011;6714;53.056;8.690;2023-02-08T03:59:47;28.57;;;17.77;;
13291;SDS011;6714;53.056;8.690;2023-02-08T04:02:32;26.13;;;16.53;;
13291;SDS011;6714;53.056;8.690;2023-02-08T04:05:15;26.30;;;15.57;;
13291;SDS011;6714;53.056;8.690;2023-02-08T04:07:57;25.03;;;16.30;;
13291;SDS011;6714;53.056;8.690;2023-02-08T04:10:39;31.50;;;18.90;;
13291;SDS011;6714;53.056;8.690;2023-02-08T04:13:23;26.10;;;17.43;;
13291;SDS011;6714;53.056;8.690;2023-02-08T04:16:05;25.70;;;17.37;;
13291;SDS011;6714;53.056;8.690;2023-02-08T04:18:48;33.63;;;20.70;;
13291;SDS011;6714;53.056;8.690;2023-02-08T04:21:30;26.83;;;17.03;;
13291;SDS011;6714;53.056;8.690;2023-02-08T04:24:12;28.57;;;18.17;;
13291;SDS011;6714;53.056;8.690;2023-02-08T04:26:54;29.17;;;17.60;;
13291;SDS011;6714;53.056;8.690;2023-02-08T04:29:38;27.67;;;17.33;;
13291;SDS011;6714;53.056;8.690;2023-02-08T04:32:21;32.33;;;19.57;;
13291;SDS011;6714;53.056;8.690;2023-02-08T04:35:03;36.37;;;19.97;;
13291;SDS011;6714;53.056;8.690;2023-02-08T04:37:46;33.10;;;20.03;;
13291;SDS011;6714;53.056;8.690;2023-02-08T04:40:28;31.87;;;20.73;;
13291;SDS011;6714;53.056;8.690;2023-02-08T04:43:11;34.53;;;20.13;;
13291;SDS011;6714;53.056;8.690;2023-02-08T04:45:54;30.53;;;18.27;;
13291;SDS011;6714;53.056;8.690;2023-02-08T04:48:37;36.73;;;22.60;;
13291;SDS011;6714;53.056;8.690;2023-02-08T04:51:19;37.57;;;22.90;;
13291;SDS011;6714;53.056;8.690;2023-02-08T04:54:02;30.50;;;19.37;;
13291;SDS011;6714;53.056;8.690;2023-02-08T04:56:44;37.63;;;20.93;;
13291;SDS011;6714;53.056;8.690;2023-02-08T04:59:26;41.13;;;21.40;;
13291;SDS011;6714;53.056;8.690;2023-02-08T05:02:10;41.70;;;22.97;;
13291;SDS011;6714;53.056;8.690;2023-02-08T05:04:52;40.20;;;24.07;;
13291;SDS011;6714;53.056;8.690;2023-02-08T05:07:35;26.57;;;16.50;;
13291;SDS011;6714;53.056;8.690;2023-02-08T05:10:17;37.63;;;22.23;;
13291;SDS011;6714;53.056;8.690;2023-02-08T05:13:00;41.23;;;23.43;;
13291;SDS011;6714;53.056;8.690;2023-02-08T05:15:42;32.87;;;20.30;;
13291;SDS011;6714;53.056;8.690;2023-02-08T05:18:26;32.60;;;19.73;;
13291;SDS011;6714;53.056;8.690;2023-02-08T05:21:08;36.27;;;21.67;;
13291;SDS011;6714;53.056;8.690;2023-02-08T05:23:50;31.90;;;18.03;;
13291;SDS011;6714;53.056;8.690;2023-02-08T05:26:33;34.17;;;20.00;;
13291;SDS011;6714;53.056;8.690;2023-02-08T05:29:15;36.00;;;20.30;;
13291;SDS011;6714;53.056;8.690;2023-02-08T05:31:57;33.80;;;20.60;;
13291;SDS011;6714;53.056;8.690;2023-02-08T05:34:41;27.13;;;17.20;;
13291;SDS011;6714;53.056;8.690;2023-02-08T05:37:23;30.83;;;17.87;;
13291;SDS011;6714;53.056;8.690;2023-02-08T05:40:06;28.40;;;19.33;;
13291;SDS011;6714;53.056;8.690;2023-02-08T05:42:48;33.50;;;19.07;;
13291;SDS011;6714;53.056;8.690;2023-02-08T05:45:31;34.30;;;20.63;;
13291;SDS011;6714;53.056;8.690;2023-02-08T05:48:13;25.50;;;15.83;;
13291;SDS011;6714;53.056;8.690;2023-02-08T05:50:56;27.20;;;16.80;;
13291;SDS011;6714;53.056;8.690;2023-02-08T05:53:39;30.60;;;18.07;;
13291;SDS011;6714;53.056;8.690;2023-02-08T05:56:22;37.53;;;21.03;;
13291;SDS011;6714;53.056;8.690;2023-02-08T05:59:04;33.37;;;19.27;;
13291;SDS011;6714;53.056;8.690;2023-02-08T06:01:47;32.73;;;20.27;;
13291;SDS011;6714;53.056;8.690;2023-02-08T06:04:29;29.53;;;18.83;;
13291;SDS011;6714;53.056;8.690;2023-02-08T06:07:12;28.00;;;17.43;;
13291;SDS011;6714;53.056;8.690;2023-02-08T06:09:54;29.37;;;17.70;;
13291;SDS011;6714;53.056;8.690;2023-02-08T06:12:37;25.10;;;17.13;;
13291;SDS011;6714;53.056;8.690;2023-02-08T06:15:19;31.90;;;19.20;;
13291;SDS011;6714;53.056;8.690;2023-02-08T06:18:01;30.20;;;19.93;;
13291;SDS011;6714;53.056;8.690;2023-02-08T06:20:43;31.17;;;18.27;;
13291;SDS011;6714;53.056;8.690;2023-02-08T06:23:27;31.43;;;18.80;;
13291;SDS011;6714;53.056;8.690;2023-02-08T06:26:09;30.10;;;19.70;;
13291;SDS011;6714;53.056;8.690;2023-02-08T06:28:51;28.47;;;17.70;;
13291;SDS011;6714;53.056;8.690;2023-02-08T06:31:34;30.00;;;18.77;;
13291;SDS011;6714;53.056;8.690;2023-02-08T06:34:16;33.03;;;20.63;;
13291;SDS011;6714;53.056;8.690;2023-02-08T06:36:58;36.43;;;21.13;;
13291;SDS011;6714;53.056;8.690;2023-02-08T06:39:42;35.67;;;20.93;;
13291;SDS011;6714;53.056;8.690;2023-02-08T06:42:25;29.83;;;18.27;;
13291;SDS011;6714;53.056;8.690;2023-02-08T06:45:07;33.63;;;20.60;;
13291;SDS011;6714;53.056;8.690;2023-02-08T06:47:49;28.87;;;17.20;;
13291;SDS011;6714;53.056;8.690;2023-02-08T06:50:31;30.03;;;18.17;;
13291;SDS011;6714;53.056;8.690;2023-02-08T06:53:14;30.33;;;17.83;;
13291;SDS011;6714;53.056;8.690;2023-02-08T06:55:57;35.70;;;20.53;;
13291;SDS011;6714;53.056;8.690;2023-02-08T06:58:40;32.90;;;19.03;;
13291;SDS011;6714;53.056;8.690;2023-02-08T07:01:22;38.43;;;21.60;;
13291;SDS011;6714;53.056;8.690;2023-02-08T07:04:05;34.43;;;19.83;;
13291;SDS011;6714;53.056;8.690;2023-02-08T07:06:47;36.50;;;20.53;;
13291;SDS011;6714;53.056;8.690;2023-02-08T07:09:31;45.70;;;24.23;;
13291;SDS011;6714;53.056;8.690;2023-02-08T07:12:15;34.90;;;20.17;;
13291;SDS011;6714;53.056;8.690;2023-02-08T07:14:57;36.03;;;19.80;;
13291;SDS011;6714;53.056;8.690;2023-02-08T07:17:40;37.03;;;21.33;;
13291;SDS011;6714;53.056;8.690;2023-02-08T07:20:22;41.17;;;22.63;;
13291;SDS011;6714;53.056;8.690;2023-02-08T07:23:04;38.87;;;21.57;;
13291;SDS011;6714;53.056;8.690;2023-02-08T07:25:54;52.33;;;25.30;;
13291;SDS011;6714;53.056;8.690;2023-02-08T07:28:38;42.87;;;23.07;;
13291;SDS011;6714;53.056;8.690;2023-02-08T07:31:21;35.17;;;18.40;;
13291;SDS011;6714;53.056;8.690;2023-02-08T07:34:03;29.40;;;16.33;;
13291;SDS011;6714;53.056;8.690;2023-02-08T07:36:45;27.83;;;16.37;;
13291;SDS011;6714;53.056;8.690;2023-02-08T07:39:27;45.77;;;23.63;;
13291;SDS011;6714;53.056;8.690;2023-02-08T07:42:10;43.77;;;23.40;;
13291;SDS011;6714;53.056;8.690;2023-02-08T07:44:54;54.33;;;26.90;;
13291;SDS011;6714;53.056;8.690;2023-02-08T07:47:36;41.83;;;22.60;;
13291;SDS011;6714;53.056;8.690;2023-02-08T07:50:18;21.73;;;13.57;;
13291;SDS011;6714;53.056;8.690;2023-02-08T07:53:00;47.30;;;23.83;;
13291;SDS011;6714;53.056;8.690;2023-02-08T07:55:44;58.13;;;30.13;;
13291;SDS011;6714;53.056;8.690;2023-02-08T07:58:26;49.70;;;27.17;;
13291;SDS011;6714;53.056;8.690;2023-02-08T08:01:09;54.57;;;28.80;;
13291;SDS011;6714;53.056;8.690;2023-02-08T08:03:52;60.33;;;29.40;;
13291;SDS011;6714;53.056;8.690;2023-02-08T08:06:34;61.17;;;28.50;;
13291;SDS011;6714;53.056;8.690;2023-02-08T08:09:16;52.47;;;25.83;;
13291;SDS011;6714;53.056;8.690;2023-02-08T08:11:59;57.83;;;29.17;;
13291;SDS011;6714;53.056;8.690;2023-02-08T08:14:42;50.53;;;25.03;;
13291;SDS011;6714;53.056;8.690;2023-02-08T08:17:25;56.07;;;28.53;;
13291;SDS011;6714;53.056;8.690;2023-02-08T08:20:08;55.60;;;27.57;;
13291;SDS011;6714;53.056;8.690;2023-02-08T08:22:50;58.53;;;30.30;;
13291;SDS011;6714;53.056;8.690;2023-02-08T08:25:32;51.27;;;25.60;;
13291;SDS011;6714;53.056;8.690;2023-02-08T08:28:15;47.27;;;24.87;;
13291;SDS011;6714;53.056;8.690;2023-02-08T08:30:57;40.17;;;21.93;;
13291;SDS011;6714;53.056;8.690;2023-02-08T08:33:40;53.07;;;29.17;;
13291;SDS011;6714;53.056;8.690;2023-02-08T08:36:23;69.10;;;34.00;;
13291;SDS011;6714;53.056;8.690;2023-02-08T08:39:05;67.47;;;32.47;;
13291;SDS011;6714;53.056;8.690;2023-02-08T08:41:47;73.20;;;35.47;;
13291;SDS011;6714;53.056;8.690;2023-02-08T08:44:30;71.07;;;34.63;;
13291;SDS011;6714;53.056;8.690;2023-02-08T08:47:12;63.60;;;31.40;;
13291;SDS011;6714;53.056;8.690;2023-02-08T08:49:56;62.03;;;32.03;;
13291;SDS011;6714;53.056;8.690;2023-02-08T08:52:38;66.67;;;32.43;;
13291;SDS011;6714;53.056;8.690;2023-02-08T08:55:21;64.40;;;31.63;;
13291;SDS011;6714;53.056;8.690;2023-02-08T08:58:03;76.27;;;35.83;;
13291;SDS011;6714;53.056;8.690;2023-02-08T09:00:46;70.73;;;34.50;;
13291;SDS011;6714;53.056;8.690;2023-02-08T09:03:28;68.83;;;32.80;;
13291;SDS011;6714;53.056;8.690;2023-02-08T09:06:12;81.47;;;38.07;;
13291;SDS011;6714;53.056;8.690;2023-02-08T09:08:54;72.00;;;35.03;;
13291;SDS011;6714;53.056;8.690;2023-02-08T09:11:36;65.37;;;30.60;;
13291;SDS011;6714;53.056;8.690;2023-02-08T09:14:19;76.30;;;37.67;;
13291;SDS011;6714;53.056;8.690;2023-02-08T09:17:01;80.30;;;37.83;;
13291;SDS011;6714;53.056;8.690;2023-02-08T09:19:44;76.03;;;37.77;;
13291;SDS011;6714;53.056;8.690;2023-02-08T09:22:28;75.60;;;35.80;;
13291;SDS011;6714;53.056;8.690;2023-02-08T09:25:10;76.10;;;35.53;;
13291;SDS011;6714;53.056;8.690;2023-02-08T09:27:52;71.30;;;33.83;;
13291;SDS011;6714;53.056;8.690;2023-02-08T09:30:35;73.67;;;37.93;;
13291;SDS011;6714;53.056;8.690;2023-02-08T09:33:17;82.33;;;39.63;;
13291;SDS011;6714;53.056;8.690;2023-02-08T09:35:59;78.97;;;38.73;;
13291;SDS011;6714;53.056;8.690;2023-02-08T09:38:43;67.67;;;33.37;;
13291;SDS011;6714;53.056;8.690;2023-02-08T09:41:28;75.00;;;36.70;;
13291;SDS011;6714;53.056;8.690;2023-02-08T09:44:15;79.07;;;38.77;;
13291;SDS011;6714;53.056;8.690;2023-02-08T09:47:01;81.77;;;38.90;;
13291;SDS011;6714;53.056;8.690;2023-02-08T09:49:46;85.13;;;38.97;;
13291;SDS011;6714;53.056;8.690;2023-02-08T09:52:34;79.43;;;36.57;;
13291;SDS011;6714;53.056;8.690;2023-02-08T09:55:23;79.70;;;40.17;;
13291;SDS011;6714;53.056;8.690;2023-02-08T09:58:12;90.77;;;41.33;;
13291;SDS011;6714;53.056;8.690;2023-02-08T10:00:56;81.50;;;36.63;;
13291;SDS011;6714;53.056;8.690;2023-02-08T10:03:39;80.10;;;37.17;;
13291;SDS011;6714;53.056;8.690;2023-02-08T10:06:23;88.70;;;40.03;;
13291;SDS011;6714;53.056;8.690;2023-02-08T10:09:08;87.33;;;40.37;;
13291;SDS011;6714;53.056;8.690;2023-02-08T10:11:56;90.70;;;40.67;;
13291;SDS011;6714;53.056;8.690;2023-02-08T10:14:47;93.47;;;40.37;;
13291;SDS011;6714;53.056;8.690;2023-02-08T10:17:41;93.30;;;40.40;;
13291;SDS011;6714;53.056;8.690;2023-02-08T10:20:36;84.23;;;37.40;;
13291;SDS011;6714;53.056;8.690;2023-02-08T10:23:24;90.40;;;41.90;;
13291;SDS011;6714;53.056;8.690;2023-02-08T10:26:10;71.73;;;34.57;;
13291;SDS011;6714;53.056;8.690;2023-02-08T10:29:02;78.10;;;38.33;;
13291;SDS011;6714;53.056;8.690;2023-02-08T10:31:52;91.27;;;41.73;;
13291;SDS011;6714;53.056;8.690;2023-02-08T10:34:38;89.73;;;41.33;;
13291;SDS011;6714;53.056;8.690;2023-02-08T10:37:26;90.37;;;40.17;;
13291;SDS011;6714;53.056;8.690;2023-02-08T10:40:16;80.40;;;36.97;;
13291;SDS011;6714;53.056;8.690;2023-02-08T10:43:13;98.00;;;41.67;;
13291;SDS011;6714;53.056;8.690;2023-02-08T10:46:01;83.07;;;37.53;;
13291;SDS011;6714;53.056;8.690;2023-02-08T10:48:47;83.77;;;38.00;;
13291;SDS011;6714;53.056;8.690;2023-02-08T10:51:32;73.57;;;33.87;;
13291;SDS011;6714;53.056;8.690;2023-02-08T10:54:14;86.10;;;39.50;;
13291;SDS011;6714;53.056;8.690;2023-02-08T10:56:58;83.43;;;39.37;;
13291;SDS011;6714;53.056;8.690;2023-02-08T10:59:46;86.97;;;40.70;;
13291;SDS011;6714;53.056;8.690;2023-02-08T11:02:32;90.20;;;40.37;;
13291;SDS011;6714;53.056;8.690;2023-02-08T11:05:14;81.13;;;39.70;;
13291;SDS011;6714;53.056;8.690;2023-02-08T11:08:05;94.77;;;40.17;;
13291;SDS011;6714;53.056;8.690;2023-02-08T11:10:57;92.10;;;41.73;;
13291;SDS011;6714;53.056;8.690;2023-02-08T11:13:40;92.30;;;39.67;;
13291;SDS011;6714;53.056;8.690;2023-02-08T11:16:24;83.27;;;39.10;;
13291;SDS011;6714;53.056;8.690;2023-02-08T11:19:13;71.50;;;34.07;;
13291;SDS011;6714;53.056;8.690;2023-02-08T11:22:01;76.57;;;38.00;;
13291;SDS011;6714;53.056;8.690;2023-02-08T11:24:45;77.27;;;36.63;;
13291;SDS011;6714;53.056;8.690;2023-02-08T11:27:36;75.40;;;36.83;;
13291;SDS011;6714;53.056;8.690;2023-02-08T11:30:22;65.03;;;34.30;;
13291;SDS011;6714;53.056;8.690;2023-02-08T11:33:13;68.97;;;34.53;;
13291;SDS011;6714;53.056;8.690;2023-02-08T11:36:00;60.97;;;32.53;;
13291;SDS011;6714;53.056;8.690;2023-02-08T11:38:42;61.37;;;32.60;;
13291;SDS011;6714;53.056;8.690;2023-02-08T11:41:24;64.37;;;32.57;;
13291;SDS011;6714;53.056;8.690;2023-02-08T11:44:11;59.13;;;31.10;;
13291;SDS011;6714;53.056;8.690;2023-02-08T11:46:56;51.53;;;29.43;;
13291;SDS011;6714;53.056;8.690;2023-02-08T11:49:39;58.33;;;31.30;;
13291;SDS011;6714;53.056;8.690;2023-02-08T11:52:24;56.17;;;31.47;;
13291;SDS011;6714;53.056;8.690;2023-02-08T11:55:11;59.47;;;33.30;;
13291;SDS011;6714;53.056;8.690;2023-02-08T11:57:54;54.73;;;31.17;;
13291;SDS011;6714;53.056;8.690;2023-02-08T12:00:39;52.23;;;31.03;;
13291;SDS011;6714;53.056;8.690;2023-02-08T12:03:24;47.83;;;28.07;;
13291;SDS011;6714;53.056;8.690;2023-02-08T12:06:14;45.53;;;27.40;;
13291;SDS011;6714;53.056;8.690;2023-02-08T12:09:02;43.30;;;25.13;;
13291;SDS011;6714;53.056;8.690;2023-02-08T12:11:48;44.70;;;24.77;;
13291;SDS011;6714;53.056;8.690;2023-02-08T12:14:34;49.83;;;27.60;;
13291;SDS011;6714;53.056;8.690;2023-02-08T12:20:29;42.73;;;24.70;;
13291;SDS011;6714;53.056;8.690;2023-02-08T12:23:17;39.30;;;23.07;;
13291;SDS011;6714;53.056;8.690;2023-02-08T12:26:07;36.47;;;23.23;;
13291;SDS011;6714;53.056;8.690;2023-02-08T12:29:12;36.50;;;22.67;;
13291;SDS011;6714;53.056;8.690;2023-02-08T12:31:59;33.63;;;22.17;;
13291;SDS011;6714;53.056;8.690;2023-02-08T12:34:50;32.97;;;21.37;;
13291;SDS011;6714;53.056;8.690;2023-02-08T12:37:37;35.70;;;22.83;;
13291;SDS011;6714;53.056;8.690;2023-02-08T12:40:41;31.57;;;21.27;;
13291;SDS011;6714;53.056;8.690;2023-02-08T12:43:39;34.23;;;21.70;;
13291;SDS011;6714;53.056;8.690;2023-02-08T12:46:32;34.23;;;20.47;;
13291;SDS011;6714;53.056;8.690;2023-02-08T12:49:23;34.90;;;19.73;;
13291;SDS011;6714;53.056;8.690;2023-02-08T12:52:11;29.23;;;19.43;;
13291;SDS011;6714;53.056;8.690;2023-02-08T12:54:59;31.17;;;20.00;;
13291;SDS011;6714;53.056;8.690;2023-02-08T12:57:43;33.13;;;19.80;;
13291;SDS011;6714;53.056;8.690;2023-02-08T13:00:28;28.40;;;18.10;;
13291;SDS011;6714;53.056;8.690;2023-02-08T13:03:12;24.57;;;17.27;;
13291;SDS011;6714;53.056;8.690;2023-02-08T13:05:58;24.67;;;16.10;;
13291;SDS011;6714;53.056;8.690;2023-02-08T13:08:43;22.90;;;15.60;;
13291;SDS011;6714;53.056;8.690;2023-02-08T13:11:29;23.83;;;15.30;;
13291;SDS011;6714;53.056;8.690;2023-02-08T13:17:13;18.40;;;12.97;;
13291;SDS011;6714;53.056;8.690;2023-02-08T13:19:57;18.60;;;13.27;;
13291;SDS011;6714;53.056;8.690;2023-02-08T13:22:41;18.17;;;12.60;;
13291;SDS011;6714;53.056;8.690;2023-02-08T13:25:25;16.37;;;11.37;;
13291;SDS011;6714;53.056;8.690;2023-02-08T13:28:14;13.80;;;10.27;;
13291;SDS011;6714;53.056;8.690;2023-02-08T13:30:59;16.73;;;10.73;;
13291;SDS011;6714;53.056;8.690;2023-02-08T13:33:44;18.03;;;10.70;;
13291;SDS011;6714;53.056;8.690;2023-02-08T13:36:29;13.23;;;9.63;;
13291;SDS011;6714;53.056;8.690;2023-02-08T13:39:22;10.80;;;7.90;;
13291;SDS011;6714;53.056;8.690;2023-02-08T13:45:06;11.53;;;8.17;;
13291;SDS011;6714;53.056;8.690;2023-02-08T13:47:56;12.20;;;8.50;;
13291;SDS011;6714;53.056;8.690;2023-02-08T13:50:41;13.50;;;9.37;;
13291;SDS011;6714;53.056;8.690;2023-02-08T13:56:36;10.20;;;8.07;;
13291;SDS011;6714;53.056;8.690;2023-02-08T13:59:27;10.03;;;7.10;;
13291;SDS011;6714;53.056;8.690;2023-02-08T14:02:20;11.40;;;7.90;;
13291;SDS011;6714;53.056;8.690;2023-02-08T14:08:05;8.43;;;6.47;;
13291;SDS011;6714;53.056;8.690;2023-02-08T14:10:50;9.13;;;6.40;;
13291;SDS011;6714;53.056;8.690;2023-02-08T14:13:44;12.10;;;7.67;;
13291;SDS011;6714;53.056;8.690;2023-02-08T14:16:29;12.03;;;7.10;;
13291;SDS011;6714;53.056;8.690;2023-02-08T14:19:21;11.80;;;7.27;;
13291;SDS011;6714;53.056;8.690;2023-02-08T14:22:05;12.13;;;8.57;;
13291;SDS011;6714;53.056;8.690;2023-02-08T14:24:58;13.20;;;9.10;;
13291;SDS011;6714;53.056;8.690;2023-02-08T14:27:41;13.10;;;8.80;;
13291;SDS011;6714;53.056;8.690;2023-02-08T14:30:25;14.97;;;10.10;;
13291;SDS011;6714;53.056;8.690;2023-02-08T14:33:09;13.83;;;9.53;;
13291;SDS011;6714;53.056;8.690;2023-02-08T14:35:55;13.63;;;9.00;;
13291;SDS011;6714;53.056;8.690;2023-02-08T14:41:44;13.20;;;9.50;;
13291;SDS011;6714;53.056;8.690;2023-02-08T14:47:49;14.53;;;10.13;;
13291;SDS011;6714;53.056;8.690;2023-02-08T14:50:33;17.50;;;11.97;;
13291;SDS011;6714;53.056;8.690;2023-02-08T14:56:26;20.77;;;13.27;;
13291;SDS011;6714;53.056;8.690;2023-02-08T14:59:12;20.80;;;14.73;;
13291;SDS011;6714;53.056;8.690;2023-02-08T15:01:56;23.00;;;15.80;;
13291;SDS011;6714;53.056;8.690;2023-02-08T15:04:40;23.03;;;15.90;;
13291;SDS011;6714;53.056;8.690;2023-02-08T15:07:25;20.63;;;14.10;;
13291;SDS011;6714;53.056;8.690;2023-02-08T15:10:11;22.17;;;14.43;;
13291;SDS011;6714;53.056;8.690;2023-02-08T15:12:55;22.43;;;15.03;;
13291;SDS011;6714;53.056;8.690;2023-02-08T15:15:41;21.60;;;13.97;;
13291;SDS011;6714;53.056;8.690;2023-02-08T15:18:26;18.93;;;13.03;;
13291;SDS011;6714;53.056;8.690;2023-02-08T15:21:14;27.80;;;17.20;;
13291;SDS011;6714;53.056;8.690;2023-02-08T15:23:57;24.53;;;16.57;;
13291;SDS011;6714;53.056;8.690;2023-02-08T15:26:42;23.57;;;16.60;;
13291;SDS011;6714;53.056;8.690;2023-02-08T15:29:25;23.27;;;15.73;;
13291;SDS011;6714;53.056;8.690;2023-02-08T15:32:11;20.20;;;13.77;;
13291;SDS011;6714;53.056;8.690;2023-02-08T15:34:56;21.60;;;14.33;;
13291;SDS011;6714;53.056;8.690;2023-02-08T15:37:39;25.07;;;14.77;;
13291;SDS011;6714;53.056;8.690;2023-02-08T15:40:25;29.33;;;16.03;;
13291;SDS011;6714;53.056;8.690;2023-02-08T15:43:10;25.63;;;16.43;;
13291;SDS011;6714;53.056;8.690;2023-02-08T15:45:56;24.30;;;16.70;;
13291;SDS011;6714;53.056;8.690;2023-02-08T15:48:40;20.70;;;14.33;;
13291;SDS011;6714;53.056;8.690;2023-02-08T15:51:23;23.40;;;15.23;;
13291;SDS011;6714;53.056;8.690;2023-02-08T15:54:06;27.00;;;16.20;;
13291;SDS011;6714;53.056;8.690;2023-02-08T15:56:50;23.47;;;16.03;;
13291;SDS011;6714;53.056;8.690;2023-02-08T15:59:36;27.10;;;16.80;;
13291;SDS011;6714;53.056;8.690;2023-02-08T16:02:22;23.10;;;15.57;;
13291;SDS011;6714;53.056;8.690;2023-02-08T16:05:14;25.40;;;16.23;;
13291;SDS011;6714;53.056;8.690;2023-02-08T16:07:57;28.13;;;17.30;;
13291;SDS011;6714;53.056;8.690;2023-02-08T16:10:41;40.00;;;22.87;;
13291;SDS011;6714;53.056;8.690;2023-02-08T16:13:25;34.27;;;21.07;;
13291;SDS011;6714;53.056;8.690;2023-02-08T16:16:16;30.80;;;19.73;;
13291;SDS011;6714;53.056;8.690;2023-02-08T16:18:59;34.30;;;20.90;;
13291;SDS011;6714;53.056;8.690;2023-02-08T16:21:43;32.30;;;19.43;;
13291;SDS011;6714;53.056;8.690;2023-02-08T16:24:25;26.17;;;16.93;;
13291;SDS011;6714;53.056;8.690;2023-02-08T16:27:14;30.93;;;19.50;;
13291;SDS011;6714;53.056;8.690;2023-02-08T16:29:59;31.83;;;20.07;;
13291;SDS011;6714;53.056;8.690;2023-02-08T16:32:42;29.73;;;19.30;;
13291;SDS011;6714;53.056;8.690;2023-02-08T16:35:25;28.50;;;17.73;;
13291;SDS011;6714;53.056;8.690;2023-02-08T16:38:11;30.17;;;18.33;;
13291;SDS011;6714;53.056;8.690;2023-02-08T16:41:00;26.50;;;17.73;;
13291;SDS011;6714;53.056;8.690;2023-02-08T16:43:52;29.77;;;19.00;;
13291;SDS011;6714;53.056;8.690;2023-02-08T16:46:54;26.03;;;16.80;;